Time;durP1;ratioP1;P1;durP2;ratioP2;P2;SDS_P1;SDS_P2;PMS_P1;PMS_P2;Temp;Humidity;BMP_temperature;BMP_pressure;BME280_temperature;BME280_humidity;BME280_pressure;Samples;Min_cycle;Max_cycle;Signal;HPM_P1;HPM_P2
2022/07/03 00:00:24;;;;;;;2.80;2.60;;;16.60;99.90;;;;;;5773957;22;20667;-95
2022/07/03 00:02:50;;;;;;;2.80;2.60;;;16.90;99.90;;;;;;4958297;28;20504;-94
2022/07/03 00:05:15;;;;;;;2.60;2.30;;;16.20;99.90;;;;;;4955410;28;20183;-96
2022/07/03 00:07:41;;;;;;;2.67;2.47;;;18.50;99.90;;;;;;4950273;28;20890;-95
2022/07/03 00:10:10;;;;;;;2.33;2.23;;;18.00;99.90;;;;;;4949322;28;20186;-96
2022/07/03 00:12:41;;;;;;;3.13;2.93;;;16.90;99.90;;;;;;4987492;28;20170;-96
2022/07/03 00:15:07;;;;;;;2.60;2.40;;;17.00;99.90;;;;;;4964945;28;20445;-95
2022/07/03 00:20:09;;;;;;;2.80;2.60;;;16.70;99.90;;;;;;5247456;22;20500;-96
2022/07/03 00:22:40;;;;;;;2.50;2.30;;;16.60;99.90;;;;;;5015195;28;20468;-96
2022/07/03 00:25:10;;;;;;;2.50;2.30;;;16.50;99.90;;;;;;4985985;28;20441;-96
2022/07/03 00:30:11;;;;;;;2.77;2.57;;;16.60;99.90;;;;;;5238924;22;21067;-96
2022/07/03 00:32:42;;;;;;;2.30;2.20;;;18.00;99.90;;;;;;5021221;23;20513;-96
2022/07/03 00:35:08;;;;;;;2.93;2.70;;;18.00;99.90;;;;;;5008199;28;20431;-96
2022/07/03 00:47:58;;;;;;;3.17;2.97;;;16.80;99.90;;;;;;6049423;23;20394;-96
2022/07/03 00:50:26;;;;;;;4.10;3.37;;;17.40;99.90;;;;;;4986481;28;20453;-96
2022/07/03 00:52:54;;;;;;;3.30;3.00;;;16.60;99.90;;;;;;4986381;28;20437;-95
2022/07/03 00:55:48;;;;;;;3.67;3.30;;;17.00;99.90;;;;;;5023621;28;20448;-96
2022/07/03 00:58:23;;;;;;;3.10;2.90;;;17.60;99.90;;;;;;4999811;28;20441;-96
2022/07/03 01:00:52;;;;;;;3.83;3.50;;;17.90;99.90;;;;;;4991039;28;20440;-96
2022/07/03 01:03:27;;;;;;;3.93;3.63;;;16.40;99.90;;;;;;4991065;28;20437;-96
2022/07/03 01:06:41;;;;;;;3.40;2.67;;;18.00;99.90;;;;;;5014280;28;20441;-96
2022/07/03 01:09:20;;;;;;;3.20;3.00;;;17.70;99.90;;;;;;5000898;28;20475;-96
2022/07/03 01:25:08;;;;;;;3.77;3.53;;;16.70;99.90;;;;;;5705053;22;20483;-94
2022/07/03 01:27:47;;;;;;;5.80;3.60;;;15.10;99.90;;;;;;5026762;28;20427;-96
2022/07/03 01:30:13;;;;;;;3.20;3.00;;;18.20;99.90;;;;;;5011747;28;20458;-95
2022/07/03 01:32:49;;;;;;;3.13;2.93;;;18.80;99.90;;;;;;4997826;28;20452;-95
2022/07/03 01:35:26;;;;;;;5.60;3.70;;;16.60;99.90;;;;;;5007208;28;20193;-95
2022/07/03 01:37:56;;;;;;;4.00;3.70;;;18.40;99.90;;;;;;5003068;28;21064;-95
2022/07/03 01:40:26;;;;;;;3.50;3.20;;;17.70;99.90;;;;;;5027538;28;20452;-96
2022/07/03 01:42:52;;;;;;;3.70;3.40;;;16.40;99.90;;;;;;5021863;28;20424;-96
2022/07/03 01:45:19;;;;;;;4.43;4.07;;;17.80;99.90;;;;;;4983553;28;20436;-95
2022/07/03 01:47:46;;;;;;;3.37;3.10;;;17.00;99.90;;;;;;4982561;28;20552;-95
2022/07/03 01:50:14;;;;;;;3.70;3.40;;;16.20;99.90;;;;;;4984229;28;20459;-95
2022/07/03 01:52:42;;;;;;;3.27;2.90;;;17.00;99.90;;;;;;4982187;28;20821;-94
2022/07/03 01:55:15;;;;;;;3.30;3.10;;;16.50;99.90;;;;;;4990539;28;20448;-93
2022/07/03 01:57:49;;;;;;;4.50;4.10;;;16.40;99.90;;;;;;4998438;28;20440;-92
2022/07/03 02:00:21;;;;;;;3.70;3.47;;;16.40;99.90;;;;;;4980157;28;20466;-93
2022/07/03 02:02:57;;;;;;;3.70;3.50;;;16.90;99.90;;;;;;4981433;28;20448;-93
2022/07/03 02:05:41;;;;;;;3.73;3.53;;;16.30;99.90;;;;;;4991109;28;20513;-93
2022/07/03 02:08:43;;;;;;;3.90;3.30;;;16.30;99.90;;;;;;4984572;28;21018;-96
2022/07/03 02:11:20;;;;;;;4.00;3.70;;;16.20;99.90;;;;;;4992399;28;20439;-94
2022/07/03 02:14:07;;;;;;;3.47;3.23;;;16.20;99.90;;;;;;4994143;28;20471;-96
2022/07/03 02:17:04;;;;;;;3.80;3.20;;;16.40;99.90;;;;;;5033594;28;20436;-96
2022/07/03 02:19:52;;;;;;;3.93;3.63;;;16.10;99.90;;;;;;4995095;28;20446;-96
2022/07/03 02:22:20;;;;;;;3.90;3.70;;;16.10;99.90;;;;;;5029115;28;20559;-95
2022/07/03 02:24:47;;;;;;;4.40;4.10;;;16.00;99.90;;;;;;5010392;28;20448;-96
2022/07/03 02:27:20;;;;;;;3.50;3.20;;;16.00;99.90;;;;;;5155900;22;20496;-96
2022/07/03 02:30:09;;;;;;;3.83;3.53;;;16.90;99.90;;;;;;4978830;28;20507;-96
2022/07/03 02:32:49;;;;;;;3.80;3.50;;;16.60;99.90;;;;;;4982739;28;21147;-96
2022/07/03 02:35:34;;;;;;;3.90;3.60;;;15.20;99.90;;;;;;4979440;28;20500;-96
2022/07/03 02:38:19;;;;;;;3.83;3.53;;;15.90;99.90;;;;;;4981569;28;20447;-96
2022/07/03 02:41:00;;;;;;;3.70;3.40;;;15.70;99.90;;;;;;4982394;28;20487;-96
2022/07/03 02:44:04;;;;;;;4.20;3.80;;;15.90;99.90;;;;;;4970816;28;20535;-96
2022/07/03 02:46:51;;;;;;;4.97;3.63;;;16.00;99.90;;;;;;4946651;28;20495;-96
2022/07/03 02:49:19;;;;;;;7.50;3.97;;;15.90;99.90;;;;;;4961905;28;20585;-94
2022/07/03 02:52:29;;;;;;;4.20;3.80;;;15.90;99.90;;;;;;4982768;28;20535;-94
2022/07/03 02:55:02;;;;;;;4.37;4.07;;;15.80;99.90;;;;;;4965093;28;20451;-92
2022/07/03 02:57:40;;;;;;;4.50;4.10;;;15.70;99.90;;;;;;4975882;28;20553;-95
2022/07/03 03:00:10;;;;;;;4.83;4.50;;;15.80;99.90;;;;;;4964827;28;20441;-94
2022/07/03 03:02:56;;;;;;;4.57;4.27;;;15.70;99.90;;;;;;4965386;28;20471;-93
2022/07/03 03:05:26;;;;;;;4.00;3.70;;;15.60;99.90;;;;;;4960897;28;20456;-94
2022/07/03 03:08:12;;;;;;;4.03;3.63;;;15.50;99.90;;;;;;4959827;28;20463;-94
2022/07/03 03:10:39;;;;;;;3.83;3.53;;;15.60;99.90;;;;;;4978998;28;20976;-95
2022/07/03 03:13:13;;;;;;;3.90;3.60;;;15.50;99.90;;;;;;4957498;28;20536;-96
2022/07/03 03:15:47;;;;;;;4.10;3.73;;;15.50;99.90;;;;;;4961329;28;20444;-95
2022/07/03 03:18:20;;;;;;;5.03;4.43;;;15.50;99.90;;;;;;4956641;28;20444;-94
2022/07/03 03:20:48;;;;;;;4.37;4.07;;;15.50;99.90;;;;;;4973851;28;20962;-96
2022/07/03 03:23:34;;;;;;;4.50;3.90;;;15.40;99.90;;;;;;5002691;28;20456;-96
2022/07/03 03:26:00;;;;;;;3.50;3.30;;;15.40;99.90;;;;;;4972429;28;20543;-96
2022/07/03 03:28:26;;;;;;;3.60;3.30;;;15.30;99.90;;;;;;4970798;28;20528;-96
2022/07/03 03:30:52;;;;;;;4.30;4.00;;;15.20;99.90;;;;;;4971819;28;20183;-96
2022/07/03 03:33:18;;;;;;;5.10;3.60;;;15.20;99.90;;;;;;4970291;28;20440;-95
2022/07/03 03:35:44;;;;;;;6.00;4.07;;;15.10;99.90;;;;;;4967506;28;20193;-96
2022/07/03 03:38:10;;;;;;;4.50;4.10;;;15.20;99.90;;;;;;4966218;28;20448;-95
2022/07/03 03:40:35;;;;;;;3.80;3.50;;;15.20;99.90;;;;;;4965086;28;20717;-96
2022/07/03 03:43:02;;;;;;;3.93;3.63;;;15.30;99.90;;;;;;4974526;28;20440;-96
2022/07/03 03:45:28;;;;;;;6.47;3.87;;;15.20;99.90;;;;;;4967913;28;20253;-95
2022/07/03 03:47:54;;;;;;;3.67;3.37;;;15.30;99.90;;;;;;4961024;28;20531;-96
2022/07/03 03:50:19;;;;;;;3.60;3.40;;;15.30;99.90;;;;;;4965270;28;20448;-95
2022/07/03 03:52:45;;;;;;;3.80;3.50;;;15.30;99.90;;;;;;4969525;28;20190;-95
2022/07/03 03:55:11;;;;;;;3.40;3.20;;;15.30;99.90;;;;;;4967119;28;20201;-95
2022/07/03 03:57:37;;;;;;;3.80;3.50;;;15.20;99.90;;;;;;4966718;28;20185;-95
2022/07/03 04:00:29;;;;;;;4.50;4.20;;;15.20;99.90;;;;;;4965253;28;20248;-95
2022/07/03 04:02:55;;;;;;;3.70;3.50;;;15.30;99.90;;;;;;4972344;28;20433;-96
2022/07/03 04:13:07;;;;;;;4.27;3.97;;;15.30;99.90;;;;;;5433848;23;20499;-96
2022/07/03 04:15:33;;;;;;;4.43;3.57;;;15.80;99.90;;;;;;5014903;28;20502;-95
2022/07/03 04:17:58;;;;;;;5.13;4.70;;;16.70;99.90;;;;;;4985180;28;20770;-96
2022/07/03 04:20:24;;;;;;;4.80;4.40;;;16.70;99.90;;;;;;5007456;28;20208;-96
2022/07/03 04:23:02;;;;;;;4.83;4.23;;;16.60;99.90;;;;;;4990960;28;20192;-95
2022/07/03 04:25:33;;;;;;;4.53;4.13;;;14.70;99.90;;;;;;4988156;28;20196;-95
2022/07/03 04:27:58;;;;;;;6.20;4.23;;;16.60;99.90;;;;;;4985883;28;20440;-95
2022/07/03 04:30:24;;;;;;;5.27;4.40;;;15.10;99.90;;;;;;4985761;28;20451;-96
2022/07/03 04:32:50;;;;;;;4.50;4.10;;;15.40;99.90;;;;;;4979083;28;20785;-96
2022/07/03 04:35:18;;;;;;;4.50;3.97;;;15.40;99.90;;;;;;4986319;28;20574;-96
2022/07/03 04:37:44;;;;;;;4.40;4.10;;;15.30;99.90;;;;;;4984230;28;20189;-96
2022/07/03 04:40:11;;;;;;;4.67;4.27;;;15.50;99.90;;;;;;4985415;28;20451;-96
2022/07/03 04:42:37;;;;;;;4.87;4.00;;;15.70;99.90;;;;;;4988249;28;20444;-95
2022/07/03 04:45:05;;;;;;;4.10;3.80;;;15.60;99.90;;;;;;4994698;28;21016;-94
2022/07/03 04:47:51;;;;;;;5.07;4.67;;;15.80;99.90;;;;;;4982494;28;20227;-95
2022/07/03 04:50:16;;;;;;;4.63;4.10;;;15.70;99.90;;;;;;4980729;28;20507;-94
2022/07/03 04:53:02;;;;;;;4.33;4.03;;;15.80;99.90;;;;;;4982806;28;20448;-96
2022/07/03 04:55:45;;;;;;;4.60;4.20;;;15.80;99.90;;;;;;4988840;28;20254;-96
2022/07/03 04:58:11;;;;;;;4.33;4.03;;;15.90;99.90;;;;;;4987554;28;20448;-95
2022/07/03 05:00:36;;;;;;;4.03;3.73;;;15.80;99.90;;;;;;4992381;28;20512;-96
2022/07/03 05:03:02;;;;;;;4.87;4.37;;;16.50;99.90;;;;;;5009401;28;20204;-96
2022/07/03 05:05:28;;;;;;;3.73;3.53;;;16.30;99.90;;;;;;5007823;28;20542;-93
2022/07/03 05:07:54;;;;;;;4.50;4.20;;;16.40;99.90;;;;;;5004029;28;20182;-96
2022/07/03 05:10:22;;;;;;;4.17;3.77;;;16.20;99.90;;;;;;5011311;28;20253;-96
2022/07/03 05:15:48;;;;;;;3.80;3.50;;;16.60;99.90;;;;;;5563491;22;20483;-96
2022/07/03 05:21:13;;;;;;;3.90;3.60;;;16.70;99.90;;;;;;5034345;23;20480;-96
2022/07/03 05:23:55;;;;;;;4.53;4.23;;;15.60;99.90;;;;;;5551649;23;20494;-96
2022/07/03 05:26:20;;;;;;;4.23;3.93;;;17.20;99.90;;;;;;5436798;23;20486;-96
2022/07/03 05:28:46;;;;;;;5.23;4.00;;;17.00;99.90;;;;;;4995734;28;20468;-96
2022/07/03 05:31:12;;;;;;;4.30;3.90;;;17.00;99.90;;;;;;4991720;28;20166;-94
2022/07/03 05:33:38;;;;;;;4.07;3.77;;;17.00;99.90;;;;;;4988150;28;20181;-94
2022/07/03 05:36:04;;;;;;;3.47;3.27;;;17.30;99.90;;;;;;4985962;28;20252;-96
2022/07/03 05:43:51;;;;;;;4.03;3.03;;;17.50;99.90;;;;;;5586734;23;20506;-96
2022/07/03 05:46:16;;;;;;;3.53;3.23;;;17.60;99.90;;;;;;5011149;28;20423;-96
2022/07/03 06:01:33;;;;;;;3.73;3.43;;;18.10;99.90;;;;;;5034835;28;20479;-96
2022/07/03 06:03:58;;;;;;;3.30;3.10;;;18.00;99.90;;;;;;5028299;28;20451;-96
2022/07/03 06:06:24;;;;;;;3.40;3.17;;;18.20;99.90;;;;;;5111021;23;20224;-96
2022/07/03 06:08:50;;;;;;;3.43;3.13;;;19.60;99.90;;;;;;5024992;28;20219;-96
2022/07/03 06:11:21;;;;;;;3.10;2.90;;;20.30;99.90;;;;;;5015618;28;20189;-96
2022/07/03 06:16:28;;;;;;;3.10;2.80;;;18.50;99.90;;;;;;5831798;22;20472;-94
2022/07/03 06:21:29;;;;;;;3.53;3.23;;;18.70;99.90;;;;;;5042049;22;20495;-96
2022/07/03 06:24:00;;;;;;;3.67;3.40;;;19.30;99.90;;;;;;4999066;28;20450;-96
2022/07/03 06:26:27;;;;;;;3.53;3.23;;;20.20;99.90;;;;;;4979158;28;20286;-93
2022/07/03 06:28:52;;;;;;;3.43;3.23;;;20.30;99.90;;;;;;4977748;28;20480;-92
2022/07/03 06:31:18;;;;;;;3.20;3.00;;;20.10;99.90;;;;;;4980037;28;20444;-92
2022/07/03 06:33:44;;;;;;;3.00;2.80;;;19.40;99.90;;;;;;4972123;28;20184;-89
2022/07/03 06:36:10;;;;;;;2.90;2.70;;;20.20;99.90;;;;;;4976441;28;20264;-92
2022/07/03 06:38:35;;;;;;;3.20;3.00;;;19.40;99.90;;;;;;4969844;28;20738;-91
2022/07/03 06:41:00;;;;;;;3.50;3.20;;;19.60;99.90;;;;;;4980976;28;20189;-92
2022/07/03 06:43:26;;;;;;;3.10;2.57;;;19.60;99.90;;;;;;4980888;28;20201;-91
2022/07/03 06:45:52;;;;;;;2.80;2.67;;;19.70;99.90;;;;;;4981596;28;20781;-93
2022/07/03 06:48:18;;;;;;;3.27;2.97;;;19.70;99.90;;;;;;4989695;28;20657;-92
2022/07/03 06:50:45;;;;;;;2.60;2.50;;;20.50;99.90;;;;;;4976805;28;20232;-92
2022/07/03 06:53:11;;;;;;;2.53;2.40;;;19.90;99.90;;;;;;4973022;28;20443;-91
2022/07/03 06:55:36;;;;;;;3.07;2.87;;;20.00;99.90;;;;;;4971061;28;20443;-92
2022/07/03 06:58:02;;;;;;;3.10;2.90;;;20.10;99.90;;;;;;4975473;28;20189;-92
2022/07/03 07:00:27;;;;;;;4.70;2.87;;;20.20;99.90;;;;;;4977648;28;20588;-92
2022/07/03 07:02:55;;;;;;;2.90;2.70;;;20.30;99.90;;;;;;4975100;28;20185;-92
2022/07/03 07:05:22;;;;;;;2.50;2.40;;;20.20;99.90;;;;;;4976485;28;20193;-90
2022/07/03 07:07:52;;;;;;;2.90;2.67;;;20.30;99.90;;;;;;4971844;28;20650;-89
2022/07/03 07:11:10;;;;;;;3.47;2.47;;;20.50;99.90;;;;;;4993477;28;20526;-91
2022/07/03 07:22:05;;;;;;;2.80;2.60;;;21.00;99.90;;;;;;4975885;28;20477;-88
2022/07/03 07:24:32;;;;;;;2.60;2.50;;;21.20;99.90;;;;;;4975605;28;20665;-90
2022/07/03 07:26:57;;;;;;;2.60;2.50;;;21.40;99.90;;;;;;4955361;28;20674;-89
2022/07/03 07:29:25;;;;;;;2.90;2.53;;;22.50;99.90;;;;;;4960371;28;20284;-89
2022/07/03 07:31:54;;;;;;;2.43;2.33;;;21.70;99.90;;;;;;4982120;28;20192;-87
2022/07/03 07:34:20;;;;;;;5.30;2.70;;;22.20;99.90;;;;;;4966417;28;20799;-90
2022/07/03 07:36:45;;;;;;;2.97;2.77;;;21.60;99.90;;;;;;4960454;28;20443;-89
2022/07/03 07:39:11;;;;;;;2.57;2.37;;;22.00;99.90;;;;;;4969663;28;20197;-90
2022/07/03 07:41:38;;;;;;;2.33;2.23;;;23.50;99.90;;;;;;4978805;28;20190;-92
2022/07/03 07:44:07;;;;;;;2.37;2.27;;;21.90;99.90;;;;;;4955282;28;20232;-93
2022/07/03 07:46:33;;;;;;;2.50;2.30;;;23.60;99.90;;;;;;4971301;28;20453;-92
2022/07/03 07:49:01;;;;;;;2.57;2.37;;;22.60;99.90;;;;;;4957875;28;21124;-91
2022/07/03 07:51:27;;;;;;;2.50;2.40;;;22.60;99.90;;;;;;4959922;28;20444;-91
2022/07/03 07:53:57;;;;;;;3.07;1.90;;;22.90;99.90;;;;;;4976923;28;20443;-91
2022/07/03 07:56:24;;;;;;;2.40;2.20;;;23.10;99.90;;;;;;4943872;28;20705;-92
2022/07/03 07:58:50;;;;;;;2.03;1.93;;;24.60;99.90;;;;;;4973105;28;20437;-93
2022/07/03 08:06:44;;;;;;;1.90;1.80;;;23.30;99.90;;;;;;4967778;28;21211;-93
2022/07/03 08:09:16;;;;;;;1.80;1.70;;;23.40;99.90;;;;;;4968713;28;20476;-95
2022/07/03 08:11:45;;;;;;;1.70;1.60;;;23.90;99.90;;;;;;4996412;28;20185;-96
2022/07/03 08:14:11;;;;;;;1.50;1.40;;;25.20;99.90;;;;;;4982336;28;20451;-95
2022/07/03 08:16:40;;;;;;;1.53;1.43;;;23.90;99.10;;;;;;4970131;28;20437;-96
2022/07/03 08:19:06;;;;;;;1.20;1.20;;;24.30;98.30;;;;;;5000738;28;20193;-96
2022/07/03 08:21:44;;;;;;;2.87;1.90;;;23.00;96.80;;;;;;4987781;28;20452;-93
2022/07/03 08:24:12;;;;;;;1.73;1.63;;;25.10;98.70;;;;;;4967125;28;20192;-94
2022/07/03 08:27:00;;;;;;;1.43;1.33;;;24.50;98.30;;;;;;4979160;28;20912;-96
2022/07/03 08:29:45;;;;;;;3.27;1.40;;;24.20;97.50;;;;;;4973311;28;20491;-96
2022/07/03 08:32:31;;;;;;;1.40;1.40;;;24.10;97.00;;;;;;4975073;28;20432;-96
2022/07/03 08:34:56;;;;;;;1.60;1.50;;;25.60;97.90;;;;;;4982101;28;20634;-95
2022/07/03 08:37:22;;;;;;;1.33;1.27;;;24.30;97.30;;;;;;4982122;28;20491;-95
2022/07/03 08:40:05;;;;;;;2.60;1.87;;;24.60;97.90;;;;;;4989014;28;20166;-96
2022/07/03 09:13:40;;;;;;;1.20;1.10;;;25.30;92.40;;;;;;2899770;23;20503;-96
2022/07/03 09:16:15;;;;;;;1.00;1.00;;;25.30;91.50;;;;;;4991622;28;20462;-96
2022/07/03 09:18:45;;;;;;;0.90;0.90;;;25.70;92.10;;;;;;4983046;28;20184;-94
2022/07/03 09:21:20;;;;;;;0.90;0.90;;;25.60;90.40;;;;;;4995835;28;20436;-91
2022/07/03 09:23:47;;;;;;;1.20;1.20;;;25.50;90.40;;;;;;4973915;28;20443;-90
2022/07/03 09:26:17;;;;;;;4.03;1.40;;;24.50;89.70;;;;;;4971242;28;20493;-89
2022/07/03 09:29:15;;;;;;;1.30;1.20;;;25.30;91.00;;;;;;4972369;28;24285;-92
2022/07/03 09:31:54;;;;;;;1.40;1.30;;;25.60;91.30;;;;;;4989366;28;20451;-90
2022/07/03 09:34:21;;;;;;;1.13;1.00;;;25.80;90.50;;;;;;4971247;28;21844;-90
2022/07/03 09:36:50;;;;;;;1.10;1.03;;;25.80;90.00;;;;;;4975319;28;20532;-91
2022/07/03 09:39:17;;;;;;;1.47;1.10;;;25.60;90.70;;;;;;4978936;28;20664;-90
2022/07/03 09:41:52;;;;;;;1.87;1.20;;;26.10;87.50;;;;;;4990240;28;20447;-94
2022/07/03 09:44:47;;;;;;;2.37;1.10;;;26.50;89.30;;;;;;5006746;28;20447;-94
2022/07/03 09:47:18;;;;;;;2.20;1.10;;;25.90;86.20;;;;;;4977770;28;20452;-93
2022/07/03 09:49:45;;;;;;;1.67;1.20;;;26.20;88.80;;;;;;4996911;28;20487;-94
2022/07/03 09:52:43;;;;;;;1.03;1.00;;;26.20;85.40;;;;;;4985809;28;20509;-92
2022/07/03 09:55:09;;;;;;;1.47;1.00;;;26.20;85.00;;;;;;4973621;28;20510;-93
2022/07/03 09:57:55;;;;;;;1.20;1.20;;;26.30;86.40;;;;;;4981688;28;20439;-95
2022/07/03 10:00:23;;;;;;;2.17;1.40;;;26.20;84.90;;;;;;4966708;28;20197;-95
2022/07/03 10:02:54;;;;;;;0.80;0.80;;;26.40;85.20;;;;;;4983607;28;20435;-95
2022/07/03 10:05:25;;;;;;;1.63;1.53;;;26.40;84.40;;;;;;4982077;28;20440;-94
2022/07/03 10:07:51;;;;;;;1.30;1.30;;;26.50;83.00;;;;;;4982673;28;20465;-95
2022/07/03 10:10:19;;;;;;;2.20;1.87;;;26.40;85.30;;;;;;5010229;28;20495;-93
2022/07/03 10:12:46;;;;;;;1.20;1.20;;;26.70;85.30;;;;;;4978968;28;20431;-95
2022/07/03 10:15:13;;;;;;;1.23;1.00;;;26.70;83.90;;;;;;4996430;28;20464;-96
2022/07/03 10:17:40;;;;;;;1.50;1.50;;;26.80;84.40;;;;;;4981994;28;20586;-92
2022/07/03 10:20:07;;;;;;;1.30;1.27;;;27.60;85.60;;;;;;4978086;28;22675;-95
2022/07/03 10:22:38;;;;;;;1.40;1.30;;;26.70;84.10;;;;;;4979521;28;20511;-96
2022/07/03 10:25:05;;;;;;;2.40;1.47;;;26.80;85.30;;;;;;4991736;28;20464;-89
2022/07/03 10:27:31;;;;;;;1.53;1.00;;;27.10;82.80;;;;;;4996591;28;20432;-96
2022/07/03 10:29:59;;;;;;;1.70;1.13;;;26.90;82.00;;;;;;5001225;28;21300;-94
2022/07/03 10:32:26;;;;;;;1.20;1.10;;;28.00;82.40;;;;;;5002059;28;20542;-92
2022/07/03 10:34:54;;;;;;;0.80;0.80;;;27.00;82.50;;;;;;4991605;28;20455;-95
2022/07/03 10:37:33;;;;;;;1.00;1.00;;;27.90;82.80;;;;;;4980767;28;20859;-96
2022/07/03 10:46:11;;;;;;;1.23;0.93;;;27.50;81.30;;;;;;4995033;28;20506;-93
2022/07/03 10:49:10;;;;;;;1.30;1.10;;;27.40;80.40;;;;;;4982434;28;20486;-94
2022/07/03 10:51:47;;;;;;;0.90;0.90;;;27.70;79.50;;;;;;4983061;28;20442;-93
2022/07/03 10:54:19;;;;;;;1.30;1.00;;;27.80;77.20;;;;;;4977811;28;20487;-94
2022/07/03 10:57:02;;;;;;;1.00;1.00;;;27.30;77.70;;;;;;4978766;28;21408;-93
2022/07/03 10:59:47;;;;;;;1.13;1.03;;;27.50;77.70;;;;;;5012199;28;20508;-94
2022/07/03 11:02:34;;;;;;;1.20;1.10;;;28.20;77.20;;;;;;5003642;28;20428;-96
2022/07/03 11:05:01;;;;;;;1.20;1.10;;;27.70;76.50;;;;;;4997131;28;20769;-93
2022/07/03 11:07:33;;;;;;;2.07;1.60;;;27.30;77.20;;;;;;4979333;28;20821;-93
2022/07/03 11:10:09;;;;;;;1.03;1.03;;;27.70;77.90;;;;;;5013657;28;20479;-96
2022/07/03 11:12:56;;;;;;;3.60;1.27;;;27.90;78.60;;;;;;5003714;28;20475;-94
2022/07/03 11:15:49;;;;;;;3.80;1.10;;;27.90;77.00;;;;;;4998099;28;20447;-96
2022/07/03 11:18:41;;;;;;;2.27;1.33;;;28.10;75.70;;;;;;4975185;28;20440;-95
2022/07/03 11:21:21;;;;;;;1.37;1.10;;;28.50;75.20;;;;;;4980111;28;20498;-93
2022/07/03 11:24:16;;;;;;;1.70;1.23;;;28.30;76.20;;;;;;4980581;28;20972;-95
2022/07/03 11:27:27;;;;;;;1.60;1.30;;;28.40;75.20;;;;;;4991249;28;20734;-93
2022/07/03 11:29:55;;;;;;;1.93;1.30;;;28.20;73.30;;;;;;5015854;28;20483;-96
2022/07/03 11:32:42;;;;;;;1.00;1.00;;;28.40;74.00;;;;;;5009959;28;20938;-94
2022/07/03 11:35:26;;;;;;;1.00;1.00;;;28.40;73.70;;;;;;5010494;28;20443;-94
2022/07/03 11:37:54;;;;;;;1.40;1.30;;;28.40;73.40;;;;;;5014306;28;21383;-92
2022/07/03 11:40:27;;;;;;;1.17;1.13;;;29.00;76.40;;;;;;4984726;28;21056;-92
2022/07/03 11:42:55;;;;;;;0.90;0.90;;;29.00;73.00;;;;;;4981206;28;20810;-91
2022/07/03 11:45:21;;;;;;;1.10;1.00;;;29.20;71.90;;;;;;4980420;28;20458;-91
2022/07/03 11:47:48;;;;;;;2.10;1.10;;;30.10;74.70;;;;;;4978737;28;20463;-92
2022/07/03 11:50:14;;;;;;;2.50;1.00;;;30.00;75.20;;;;;;4980569;28;20480;-90
2022/07/03 11:52:39;;;;;;;1.60;1.50;;;29.10;69.50;;;;;;4979342;28;20455;-90
2022/07/03 11:55:09;;;;;;;1.37;1.27;;;28.70;72.00;;;;;;5001642;28;20189;-95
2022/07/03 11:57:55;;;;;;;0.90;0.90;;;28.70;72.10;;;;;;5018058;28;20185;-95
2022/07/03 12:00:20;;;;;;;0.70;0.70;;;28.90;74.80;;;;;;4986096;28;20460;-87
2022/07/03 12:02:49;;;;;;;0.83;0.83;;;28.70;72.40;;;;;;4999502;28;20299;-88
2022/07/03 12:05:15;;;;;;;1.37;1.10;;;28.90;72.90;;;;;;4983245;28;20201;-87
2022/07/03 12:07:41;;;;;;;2.67;1.00;;;28.80;72.20;;;;;;4984109;28;20900;-88
2022/07/03 12:10:07;;;;;;;1.00;1.00;;;29.30;71.40;;;;;;4982750;28;20476;-87
2022/07/03 12:12:38;;;;;;;1.07;1.07;;;29.50;70.20;;;;;;4982774;28;20272;-88
2022/07/03 12:15:22;;;;;;;1.30;1.20;;;29.90;70.50;;;;;;4981647;28;20231;-92
2022/07/03 12:17:49;;;;;;;1.10;0.90;;;29.60;68.80;;;;;;4987365;28;20510;-94
2022/07/03 12:20:14;;;;;;;1.00;1.00;;;29.60;67.70;;;;;;4997008;28;20448;-92
2022/07/03 12:22:41;;;;;;;1.33;0.80;;;29.70;68.10;;;;;;5004576;28;20469;-93
2022/07/03 12:25:10;;;;;;;0.90;0.90;;;29.90;69.70;;;;;;4995223;28;20185;-94
2022/07/03 12:27:43;;;;;;;4.60;1.20;;;29.50;65.00;;;;;;4990940;28;20494;-93
2022/07/03 12:30:22;;;;;;;0.70;0.70;;;29.50;66.00;;;;;;4987731;28;20472;-93
2022/07/03 12:32:51;;;;;;;1.00;0.90;;;29.30;65.60;;;;;;4988353;28;20440;-94
2022/07/03 12:35:24;;;;;;;1.13;0.93;;;29.50;67.40;;;;;;5002398;28;20450;-94
2022/07/03 12:37:50;;;;;;;1.63;0.90;;;29.80;64.90;;;;;;5028333;28;20436;-95
2022/07/03 12:40:15;;;;;;;1.63;1.00;;;29.60;65.80;;;;;;5001486;28;20571;-94
2022/07/03 12:42:46;;;;;;;2.37;1.10;;;29.90;64.20;;;;;;4990690;28;20173;-96
2022/07/03 12:45:14;;;;;;;1.03;1.03;;;30.70;64.60;;;;;;4991734;28;20190;-96
2022/07/03 12:47:40;;;;;;;1.10;0.83;;;30.10;62.50;;;;;;4988787;28;20839;-96
2022/07/03 12:50:28;;;;;;;0.80;0.80;;;29.70;65.90;;;;;;5023097;28;20514;-96
2022/07/03 12:52:57;;;;;;;0.90;0.87;;;30.40;62.30;;;;;;4994565;28;20444;-96
2022/07/03 12:55:28;;;;;;;0.90;0.90;;;30.50;60.50;;;;;;4999233;28;20743;-96
2022/07/03 13:01:06;;;;;;;0.90;0.90;;;30.30;59.80;;;;;;5000111;28;20466;-93
2022/07/03 13:03:48;;;;;;;1.10;1.00;;;30.30;59.70;;;;;;4995596;28;20436;-96
2022/07/03 13:06:15;;;;;;;1.00;1.00;;;30.70;58.20;;;;;;4983834;28;20585;-94
2022/07/03 13:08:58;;;;;;;0.97;0.97;;;30.60;58.50;;;;;;4984945;28;20471;-93
2022/07/03 13:11:30;;;;;;;0.87;0.83;;;30.70;58.20;;;;;;4982338;28;20505;-94
2022/07/03 13:14:20;;;;;;;1.20;1.10;;;31.30;58.40;;;;;;4995928;28;21050;-94
2022/07/03 13:16:53;;;;;;;1.40;1.03;;;31.00;57.90;;;;;;4986139;28;20471;-94
2022/07/03 13:19:21;;;;;;;1.70;1.13;;;30.70;56.20;;;;;;4993185;28;20507;-95
2022/07/03 13:21:51;;;;;;;1.93;1.20;;;30.70;59.60;;;;;;4992620;28;20448;-93
2022/07/03 13:24:18;;;;;;;1.00;1.00;;;31.10;58.10;;;;;;5012219;28;20427;-96
2022/07/03 13:26:47;;;;;;;1.30;1.20;;;31.00;56.40;;;;;;4991405;28;20448;-95
2022/07/03 13:29:13;;;;;;;1.37;1.10;;;30.90;56.00;;;;;;4992924;28;20463;-95
2022/07/03 13:31:54;;;;;;;1.90;1.20;;;30.60;56.00;;;;;;5010784;28;20451;-96
2022/07/03 13:34:19;;;;;;;1.90;0.97;;;30.90;57.20;;;;;;5004117;28;20983;-96
2022/07/03 13:36:45;;;;;;;2.40;1.00;;;31.60;57.40;;;;;;4990960;28;20543;-95
2022/07/03 13:39:10;;;;;;;1.37;1.07;;;31.50;56.20;;;;;;4987892;28;20193;-94
2022/07/03 13:41:36;;;;;;;1.00;1.00;;;31.60;57.30;;;;;;4993740;28;20590;-94
2022/07/03 13:47:00;;;;;;;1.47;1.23;;;31.40;57.10;;;;;;5260896;23;20233;-94
2022/07/03 13:49:28;;;;;;;1.23;1.00;;;32.30;56.40;;;;;;4972208;28;20526;-94
2022/07/03 13:51:54;;;;;;;1.30;1.20;;;31.90;56.90;;;;;;4968002;28;20597;-95
2022/07/03 13:54:19;;;;;;;1.50;1.10;;;32.50;55.70;;;;;;4964617;28;20444;-95
2022/07/03 13:56:46;;;;;;;2.50;1.20;;;32.70;56.70;;;;;;4994081;28;20212;-93
2022/07/03 13:59:12;;;;;;;1.13;1.10;;;34.20;55.80;;;;;;4969666;28;20253;-93
2022/07/03 14:01:37;;;;;;;2.03;1.27;;;35.20;53.00;;;;;;4998886;28;20443;-95
2022/07/03 14:04:03;;;;;;;1.17;1.07;;;33.80;51.60;;;;;;4971205;28;20789;-92
2022/07/03 14:06:29;;;;;;;2.07;1.10;;;35.30;52.00;;;;;;4975379;28;20177;-96
2022/07/03 14:08:55;;;;;;;4.23;0.97;;;35.40;51.00;;;;;;4973429;28;20225;-94
2022/07/03 14:11:23;;;;;;;0.93;0.90;;;35.40;50.30;;;;;;4986218;28;20189;-96
2022/07/03 14:13:52;;;;;;;2.33;1.03;;;36.00;51.10;;;;;;5088075;23;20238;-95
2022/07/03 14:16:17;;;;;;;1.07;1.07;;;38.30;50.20;;;;;;5046183;28;20540;-95
2022/07/03 14:18:43;;;;;;;2.77;1.20;;;38.80;48.60;;;;;;5057609;28;20191;-96
2022/07/03 14:23:41;;;;;;;1.57;1.20;;;40.20;44.60;;;;;;5002791;28;20196;-94
2022/07/03 14:26:07;;;;;;;1.37;1.00;;;40.90;45.00;;;;;;4986264;28;20193;-96
2022/07/03 14:33:45;;;;;;;1.17;1.00;;;39.00;45.20;;;;;;5073961;22;20324;-95
2022/07/03 14:36:11;;;;;;;1.58;1.02;;;39.40;43.60;;;;;;4968590;28;20208;-93
2022/07/03 14:38:36;;;;;;;2.00;0.90;;;41.40;43.20;;;;;;4967602;28;20264;-96
2022/07/03 14:41:02;;;;;;;1.77;1.10;;;39.60;42.70;;;;;;4968155;28;20864;-94
2022/07/03 14:43:27;;;;;;;1.00;1.00;;;39.70;43.40;;;;;;4967306;28;20187;-95
2022/07/03 14:45:53;;;;;;;0.55;0.55;;;40.70;42.70;;;;;;4970500;28;20191;-95
2022/07/03 14:48:20;;;;;;;1.05;0.93;;;40.70;40.40;;;;;;4975393;28;20753;-95
2022/07/03 14:50:46;;;;;;;0.80;0.80;;;42.00;41.50;;;;;;4975090;28;20192;-96
2022/07/03 14:53:12;;;;;;;1.00;1.00;;;41.10;41.70;;;;;;4967378;28;20177;-95
2022/07/03 14:55:40;;;;;;;2.13;0.70;;;39.20;42.30;;;;;;4966646;28;20181;-94
2022/07/03 14:58:18;;;;;;;2.25;0.85;;;38.70;45.10;;;;;;4972934;28;20192;-95
2022/07/03 15:00:49;;;;;;;0.80;0.80;;;39.30;43.20;;;;;;4983425;28;20612;-94
2022/07/03 15:03:33;;;;;;;0.98;0.75;;;39.50;43.10;;;;;;4966882;28;20192;-94
2022/07/03 15:06:00;;;;;;;1.23;0.80;;;39.50;44.20;;;;;;4982470;28;20274;-94
2022/07/03 15:08:29;;;;;;;0.80;0.80;;;39.40;43.90;;;;;;4970210;28;20187;-95
2022/07/03 15:10:56;;;;;;;1.00;0.90;;;40.40;42.50;;;;;;4994432;28;20240;-94
2022/07/03 15:13:24;;;;;;;0.93;0.90;;;39.80;43.30;;;;;;5003932;28;20192;-92
2022/07/03 15:15:50;;;;;;;1.00;1.00;;;36.50;48.90;;;;;;4984301;28;20176;-93
2022/07/03 15:18:20;;;;;;;1.10;1.10;;;36.20;48.80;;;;;;4986757;28;20220;-93
2022/07/03 15:20:46;;;;;;;2.70;1.20;;;37.40;48.60;;;;;;4980209;28;20267;-94